DIRECCIÓN GENERAL DE AERONÁUTICA CIVIL
DIRECCIÓN METEOROLÓGICA DE CHILE
INFORMACIÓN METAR Y TAF

FIR SANTIAGO

Estación: SCSE
METAR SCSE 071100Z 14004KT 9999 FEW010 08/07 Q1021=

TAF SCSE 071008Z 0712/0812 14005KT 9999 SCT012 TX17/0718Z TN08/0810Z BECMG 0715/0717 VRB02KT CAVOK BECMG 0718/0720 29008KT BECMG 0800/0802 11005KT TEMPO 0806/0812 VRB02KT BKN010=

Estación: SCER
NIL=

NIL=

Estación: SCRD
METAR SCRD 062200Z 18006KT CAVOK 12/08 Q1019=

TAF SCRD 071026Z 0712/0724 18008KT CAVOK TX16/0718Z TN08/0712Z TEMPO 0712/0713 00000KT=

Estación: SCVM
METAR SCVM 071100Z 07005KT 4000 BR SCT090 06/05 Q1021=

TAF SCVM 071016Z 0712/0812 14005KT 4000 BR BKN010 TX16/0719Z TN09/ 0810Z BECMG 0714/0716 33008KT CAVOK TEMPO 0720/0724 23010KT BECMG 0800/0802 00000KT TEMPO 0802/0812 14005KT SCT012=

Estación: SCTB
METAR SCTB 071100Z 06002KT 8000 FEW100 04/03 Q1022=

TAF SCTB 071021Z 0712/0724 05004KT 8000 SKC TX18/0718Z TN01/0712Z BECMG 0715/0717 22005KT BECMG 0718/0720 4000 HZ NSC=

Estación: SCEL
METAR SCEL 071100Z VRB02KT 0800 R17L/0375N R17R/0250N FG SKC 02/01 Q1022 TEMPO 500 BCFG=

TAF SCEL 071017Z 0712/0812 VRB02KT 2000 BR SKC TX18/0719Z TN04/0811Z TEMPO 0712/0714 16004KT 0500 BCFG BECMG 0716/0718 7000 BECMG 0720/ 0722 16010KT 9999 SCT180 BECMG 0802/0804 16004KT 7000=

Estación: SCSN
METAR SCSN 071100Z VRB02KT 0600 FG FEW006 04/03 Q1022=

TAF SCSN 071024Z 0712/0724 VRB02KT 0500 FG BKN003 TX16/0718Z TN08/ 0712Z BECMG 0714/0716 14005KT 2000 BR BKN010 BECMG 0716/0718 21010KT 9999 SCT015 BECMG 0718/0720 CAVOK BECMG 0722/0724 13004KT=

Estación: SCRG
METAR SCRG 062000Z 14011KT 9999 SCT100 BKN150 13/07 Q1018=

TAF SCRG 071034Z 0712/0724 35005KT 0100 FG SKC TX17/0718Z TN03/0712Z BECMG 0714/0716 18008KT 4000 BR BECMG 0718/0720 CAVOK=

Estación: SCIC
METAR SCIC 071100Z AUTO 08003KT 040V100 0150 R/////// FG VV002 03/03 Q1022=

TAF SCIC 071035Z 0712/0724 22003KT 0200 FG BKN002 TX15/0718Z TN06/ 0712Z BECMG 0715/0716 2000 BR BKN008 BECMG 0718/0720 20008KT 9999 SCT015 SCT120 TEMPO 0720/0722 CAVOK=

Estación: SCCH
METAR SCCH 062200Z 20004KT 9999 OVC020 12/08 Q1021=

TAF SCCH 071035Z 0712/0724 24005KT 0200 FG BKN002 TX12/0718Z TN04/ 0712Z BECMG 0714/0716 4000 BR BKN120 BECMG 0718/0720 02012KT 9999 BKN080 BECMG 0722/0724 BKN020 BKN050=

Estación: SCIE
METAR SCIE 071100Z 12003KT CAVOK 06/06 Q1022=

TAF SCIE 071018Z 0712/0812 19005KT 9999 BKN015 TX13/0719Z TN10/0810Z BECMG 0716/0718 02010KT BKN012 BKN080 BECMG 0720/0722 BKN010 BKN015 BECMG 0800/0802 01018KT 7000 SHRA BKN010 BKN020 TEMPO 0804/0812 RA OVC015=

Estación: SCGE
METAR SCGE 062100Z 20004KT 9999 SCT020 BKN083 09/09 Q1023=

TAF SCGE 071036Z 0712/0724 00000KT 9999 BKN020 TX12/0718Z TN06/0712Z BECMG 0714/0716 33005KT BKN020 BKN080 BECMG 0718/0720 33012KT 5000 SHRA BKN015 BKN040=


Volver